createdAt,value
2022-12-18T00:00:57.277Z,965.51
2022-12-18T00:03:57.121Z,965.46
2022-12-18T00:06:57.896Z,965.44
2022-12-18T00:09:57.425Z,965.51
2022-12-18T00:12:57.985Z,965.54
2022-12-18T00:15:57.364Z,965.63
2022-12-18T00:18:57.866Z,965.54
2022-12-18T00:21:57.769Z,965.57
2022-12-18T00:24:57.594Z,965.63
2022-12-18T00:27:56.940Z,965.63
2022-12-18T00:30:57.785Z,965.6
2022-12-18T00:33:56.889Z,965.66
2022-12-18T00:36:57.227Z,965.67
2022-12-18T00:39:57.761Z,965.71
2022-12-18T00:42:57.393Z,965.61
2022-12-18T00:45:57.014Z,965.73
2022-12-18T00:48:57.410Z,965.84
2022-12-18T00:51:57.135Z,965.76
2022-12-18T00:55:00.700Z,965.8
2022-12-18T00:57:57.266Z,965.66
2022-12-18T01:00:57.529Z,965.7
2022-12-18T01:03:57.771Z,965.67
2022-12-18T01:06:57.244Z,965.73
2022-12-18T01:09:57.211Z,965.6
2022-12-18T01:12:57.584Z,965.63
2022-12-18T01:15:56.985Z,965.78
2022-12-18T01:18:57.342Z,965.74
2022-12-18T01:21:57.809Z,965.74
2022-12-18T01:24:57.330Z,965.81
2022-12-18T01:27:57.796Z,965.75
2022-12-18T01:30:57.895Z,965.83
2022-12-18T01:33:56.967Z,965.83
2022-12-18T01:36:57.071Z,965.88
2022-12-18T01:39:57.704Z,965.84
2022-12-18T01:42:57.739Z,965.87
2022-12-18T01:45:57.380Z,965.8
2022-12-18T01:48:57.205Z,965.87
2022-12-18T01:51:57.594Z,966.0
2022-12-18T01:54:57.115Z,966.0
2022-12-18T01:57:57.344Z,966.05
2022-12-18T02:00:57.075Z,965.88
2022-12-18T02:03:56.990Z,965.78
2022-12-18T02:06:57.249Z,965.74
2022-12-18T02:09:58.007Z,965.77
2022-12-18T02:12:56.662Z,965.74
2022-12-18T02:15:57.273Z,965.71
2022-12-18T02:18:56.763Z,965.81
2022-12-18T02:21:57.749Z,965.81
2022-12-18T02:24:57.859Z,965.84
2022-12-18T02:27:57.139Z,965.84
2022-12-18T02:30:58.238Z,965.88
2022-12-18T02:33:56.879Z,965.88
2022-12-18T02:36:57.297Z,965.78
2022-12-18T02:39:57.281Z,965.78
2022-12-18T02:42:58.030Z,965.81
2022-12-18T02:45:57.573Z,965.9
2022-12-18T02:48:57.819Z,966.14
2022-12-18T02:51:57.439Z,966.21
2022-12-18T02:54:57.585Z,966.13
2022-12-18T02:57:56.827Z,966.12
2022-12-18T03:00:57.531Z,966.01
2022-12-18T03:03:57.234Z,966.12
2022-12-18T03:06:57.380Z,966.21
2022-12-18T03:09:57.456Z,966.24
2022-12-18T03:12:56.904Z,966.25
2022-12-18T03:15:57.116Z,966.24
2022-12-18T03:18:57.419Z,966.34
2022-12-18T03:21:57.365Z,966.31
2022-12-18T03:24:57.757Z,966.38
2022-12-18T03:27:57.085Z,966.34
2022-12-18T03:30:58.232Z,966.34
2022-12-18T03:33:56.655Z,966.25
2022-12-18T03:36:57.140Z,966.12
2022-12-18T03:39:57.689Z,966.01
2022-12-18T03:42:56.883Z,966.02
2022-12-18T03:45:57.790Z,966.08
2022-12-18T03:48:56.981Z,966.05
2022-12-18T03:51:57.515Z,966.0
2022-12-18T03:54:57.696Z,966.04
2022-12-18T03:57:57.048Z,966.19
2022-12-18T04:00:57.807Z,965.94
2022-12-18T04:03:57.846Z,965.98
2022-12-18T04:06:57.604Z,965.98
2022-12-18T04:09:57.282Z,966.01
2022-12-18T04:12:57.172Z,966.09
2022-12-18T04:15:56.746Z,966.17
2022-12-18T04:18:57.310Z,966.07
2022-12-18T04:21:56.797Z,966.09
2022-12-18T04:24:57.570Z,966.14
2022-12-18T04:27:57.498Z,966.15
2022-12-18T04:30:57.499Z,966.25
2022-12-18T04:33:57.768Z,966.29
2022-12-18T04:36:57.183Z,966.21
2022-12-18T04:39:58.242Z,966.18
2022-12-18T04:42:57.864Z,966.25
2022-12-18T04:45:57.383Z,966.35
2022-12-18T04:48:57.758Z,966.37
2022-12-18T04:51:56.809Z,966.34
2022-12-18T04:54:56.927Z,966.28
2022-12-18T04:57:57.126Z,966.31
2022-12-18T05:00:58.192Z,966.46
2022-12-18T05:03:57.555Z,966.39
2022-12-18T05:06:57.267Z,966.45
2022-12-18T05:09:57.278Z,966.45
2022-12-18T05:12:57.400Z,966.32
2022-12-18T05:15:57.236Z,966.31
2022-12-18T05:18:56.724Z,966.41
2022-12-18T05:21:57.612Z,966.55
2022-12-18T05:24:56.898Z,966.42
2022-12-18T05:27:57.599Z,966.57
2022-12-18T05:30:57.332Z,966.53
2022-12-18T05:33:57.431Z,966.49
2022-12-18T05:36:57.645Z,966.39
2022-12-18T05:39:58.003Z,966.53
2022-12-18T05:42:57.346Z,966.56
2022-12-18T05:45:57.536Z,966.4
2022-12-18T05:48:57.023Z,966.42
2022-12-18T05:52:00.004Z,966.5
2022-12-18T05:54:57.478Z,966.46
2022-12-18T05:57:57.109Z,966.51
2022-12-18T06:00:57.657Z,966.42
2022-12-18T06:03:58.047Z,966.57
2022-12-18T06:06:57.916Z,966.61
2022-12-18T06:09:56.879Z,966.69
2022-12-18T06:12:56.967Z,966.58
2022-12-18T06:15:57.114Z,966.67
2022-12-18T06:18:57.439Z,966.73
2022-12-18T06:21:57.850Z,966.77
2022-12-18T06:24:57.455Z,966.68
2022-12-18T06:27:56.802Z,966.78
2022-12-18T06:30:57.491Z,966.71
2022-12-18T06:33:57.481Z,966.77
2022-12-18T06:36:57.691Z,966.68
2022-12-18T06:39:57.689Z,966.63
2022-12-18T06:42:56.781Z,966.73
2022-12-18T06:45:58.159Z,966.68
2022-12-18T06:48:57.487Z,966.68
2022-12-18T06:51:57.702Z,966.73
2022-12-18T06:54:59.445Z,966.64
2022-12-18T06:57:57.634Z,966.68
2022-12-18T07:00:57.570Z,966.61
2022-12-18T07:03:57.373Z,966.66
2022-12-18T07:06:57.051Z,966.83
2022-12-18T07:09:57.225Z,966.84
2022-12-18T07:12:57.712Z,966.88
2022-12-18T07:15:57.103Z,967.1
2022-12-18T07:18:57.052Z,967.14
2022-12-18T07:21:57.146Z,967.18
2022-12-18T07:24:58.027Z,967.21
2022-12-18T07:27:57.711Z,967.18
2022-12-18T07:30:57.593Z,967.23
2022-12-18T07:33:57.090Z,967.28
2022-12-18T07:36:57.490Z,967.29
2022-12-18T07:39:57.976Z,967.31
2022-12-18T07:42:57.533Z,967.25
2022-12-18T07:45:57.834Z,967.39
2022-12-18T07:48:57.449Z,967.4
2022-12-18T07:51:57.642Z,967.34
2022-12-18T07:54:57.169Z,967.52
2022-12-18T07:58:01.033Z,967.33
2022-12-18T08:00:57.552Z,967.41
2022-12-18T08:03:57.527Z,967.32
2022-12-18T08:06:57.287Z,967.43
2022-12-18T08:09:58.179Z,967.34
2022-12-18T08:13:01.566Z,967.47
2022-12-18T08:15:57.952Z,967.36
2022-12-18T08:18:57.247Z,967.45
2022-12-18T08:21:57.104Z,967.32
2022-12-18T08:24:57.153Z,967.29
2022-12-18T08:27:57.497Z,967.27
2022-12-18T08:30:57.538Z,967.26
2022-12-18T08:33:57.399Z,967.23
2022-12-18T08:36:57.015Z,967.41
2022-12-18T08:39:57.201Z,967.35
2022-12-18T08:42:57.494Z,967.41
2022-12-18T08:45:57.851Z,967.53
2022-12-18T08:48:57.698Z,967.45
2022-12-18T08:51:57.001Z,967.43
2022-12-18T08:54:56.908Z,967.46
2022-12-18T08:57:57.141Z,967.34
2022-12-18T09:00:57.873Z,967.42
2022-12-18T09:03:56.984Z,967.5
2022-12-18T09:06:57.544Z,967.35
2022-12-18T09:09:57.774Z,967.34
2022-12-18T09:12:57.523Z,967.32
2022-12-18T09:15:57.756Z,967.23
2022-12-18T09:18:57.646Z,967.27
2022-12-18T09:21:56.983Z,967.19
2022-12-18T09:24:57.689Z,967.22
2022-12-18T09:27:57.506Z,967.31
2022-12-18T09:30:57.791Z,967.24
2022-12-18T09:33:57.473Z,967.24
2022-12-18T09:36:58.013Z,967.16
2022-12-18T09:39:57.963Z,967.05
2022-12-18T09:42:58.008Z,967.01
2022-12-18T09:45:57.019Z,967.02
2022-12-18T09:48:57.534Z,966.95
2022-12-18T09:51:57.626Z,966.92
2022-12-18T09:54:57.309Z,966.98
2022-12-18T09:57:57.801Z,967.01
2022-12-18T10:00:57.880Z,966.96
2022-12-18T10:03:57.452Z,967.12
2022-12-18T10:06:56.746Z,967.16
2022-12-18T10:09:58.230Z,967.23
2022-12-18T10:13:04.095Z,967.23
2022-12-18T10:15:57.415Z,967.14
2022-12-18T10:21:25.429Z,967.19
2022-12-18T10:21:57.560Z,967.1
2022-12-18T10:24:57.515Z,967.12
2022-12-18T10:27:57.367Z,967.11
2022-12-18T10:30:57.845Z,967.03
2022-12-18T10:33:57.252Z,967.17
2022-12-18T10:36:58.035Z,967.04
2022-12-18T10:39:57.625Z,967.04
2022-12-18T10:42:57.518Z,967.15
2022-12-18T10:45:58.241Z,967.15
2022-12-18T10:48:56.549Z,967.11
2022-12-18T10:51:57.353Z,967.11
2022-12-18T10:54:57.758Z,967.05
2022-12-18T10:57:57.485Z,967.13
2022-12-18T11:00:57.852Z,967.3
2022-12-18T11:04:16.184Z,967.2
2022-12-18T11:06:57.002Z,967.21
2022-12-18T11:09:56.802Z,967.09
2022-12-18T11:12:57.482Z,967.13
2022-12-18T11:15:57.732Z,967.09
2022-12-18T11:18:57.670Z,967.12
2022-12-18T11:21:57.197Z,966.97
2022-12-18T11:25:30.037Z,967.02
2022-12-18T11:27:57.456Z,966.98
2022-12-18T11:30:58.312Z,967.1
2022-12-18T11:36:57.282Z,967.01
2022-12-18T11:39:57.428Z,967.02
2022-12-18T11:42:57.305Z,967.01
2022-12-18T11:45:57.277Z,966.78
2022-12-18T11:48:58.055Z,966.84
2022-12-18T11:51:57.043Z,966.74
2022-12-18T11:54:57.653Z,966.76
2022-12-18T11:57:58.148Z,966.74
2022-12-18T12:00:58.271Z,966.67
2022-12-18T12:03:57.558Z,966.7
2022-12-18T12:07:02.939Z,966.61
2022-12-18T12:09:57.259Z,966.64
2022-12-18T12:12:57.839Z,966.63
2022-12-18T12:15:57.794Z,966.65
2022-12-18T12:18:56.839Z,966.57
2022-12-18T12:21:57.209Z,966.44
2022-12-18T12:24:56.983Z,966.47
2022-12-18T12:27:57.240Z,966.24
2022-12-18T12:30:57.298Z,966.29
2022-12-18T12:33:56.753Z,966.4
2022-12-18T12:36:57.544Z,966.48
2022-12-18T12:39:57.738Z,966.45
2022-12-18T12:42:57.547Z,966.31
2022-12-18T12:45:57.311Z,966.24
2022-12-18T12:48:57.304Z,966.21
2022-12-18T12:51:57.495Z,966.3
2022-12-18T12:54:58.318Z,966.31
2022-12-18T12:57:57.354Z,966.34
2022-12-18T13:00:58.290Z,966.29
2022-12-18T13:03:58.018Z,966.32
2022-12-18T13:06:57.646Z,966.27
2022-12-18T13:09:58.362Z,966.25
2022-12-18T13:12:57.834Z,966.28
2022-12-18T13:15:57.356Z,966.29
2022-12-18T13:18:57.344Z,966.35
2022-12-18T13:21:57.229Z,966.32
2022-12-18T13:24:57.256Z,966.16
2022-12-18T13:27:58.273Z,966.05
2022-12-18T13:30:57.940Z,966.19
2022-12-18T13:34:25.738Z,966.22
2022-12-18T13:36:57.422Z,966.22
2022-12-18T13:39:57.596Z,966.13
2022-12-18T13:42:57.194Z,966.12
2022-12-18T13:45:58.110Z,966.09
2022-12-18T13:48:57.383Z,966.12
2022-12-18T13:51:57.501Z,965.97
2022-12-18T13:54:57.521Z,966.06
2022-12-18T13:57:57.259Z,966.13
2022-12-18T14:00:58.202Z,966.2
2022-12-18T14:03:57.182Z,966.14
2022-12-18T14:06:57.047Z,966.01
2022-12-18T14:10:12.146Z,965.99
2022-12-18T14:12:56.883Z,965.89
2022-12-18T14:15:59.170Z,965.99
2022-12-18T14:19:00.982Z,965.89
2022-12-18T14:21:57.319Z,966.04
2022-12-18T14:24:57.315Z,966.04
2022-12-18T14:27:57.035Z,965.93
2022-12-18T14:30:57.158Z,966.03
2022-12-18T14:33:57.146Z,966.09
2022-12-18T14:36:58.004Z,966.15
2022-12-18T14:39:58.210Z,966.09
2022-12-18T14:42:56.987Z,966.06
2022-12-18T14:45:57.610Z,966.18
2022-12-18T14:48:57.047Z,966.17
2022-12-18T14:51:56.623Z,966.15
2022-12-18T14:54:57.783Z,966.16
2022-12-18T14:57:57.144Z,966.19
2022-12-18T15:00:57.800Z,966.24
2022-12-18T15:03:56.616Z,966.19
2022-12-18T15:06:57.053Z,966.27
2022-12-18T15:09:57.495Z,966.39
2022-12-18T15:12:57.390Z,966.13
2022-12-18T15:15:57.545Z,966.21
2022-12-18T15:18:57.812Z,966.2
2022-12-18T15:22:02.881Z,966.3
2022-12-18T15:24:56.654Z,966.25
2022-12-18T15:27:57.929Z,966.34
2022-12-18T15:30:58.087Z,966.29
2022-12-18T15:33:57.137Z,966.33
2022-12-18T15:36:56.579Z,966.23
2022-12-18T15:39:57.667Z,966.22
2022-12-18T15:42:57.825Z,966.14
2022-12-18T15:45:58.022Z,966.16
2022-12-18T15:49:01.846Z,966.32
2022-12-18T15:51:56.734Z,966.32
2022-12-18T15:54:57.503Z,966.33
2022-12-18T15:57:57.421Z,966.37
2022-12-18T16:00:57.906Z,966.27
2022-12-18T16:03:57.773Z,966.21
2022-12-18T16:07:14.935Z,966.24
2022-12-18T16:09:57.623Z,966.2
2022-12-18T16:12:57.759Z,966.14
2022-12-18T16:15:57.529Z,966.19
2022-12-18T16:18:57.151Z,966.18
2022-12-18T16:21:57.610Z,966.14
2022-12-18T16:24:57.097Z,966.18
2022-12-18T16:27:57.266Z,966.08
2022-12-18T16:30:57.642Z,966.15
2022-12-18T16:33:57.923Z,966.05
2022-12-18T16:37:03.124Z,965.99
2022-12-18T16:39:57.216Z,966.12
2022-12-18T16:42:57.313Z,965.96
2022-12-18T16:45:57.158Z,966.02
2022-12-18T16:48:56.982Z,965.97
2022-12-18T16:51:57.828Z,965.99
2022-12-18T16:54:57.667Z,965.95
2022-12-18T16:57:57.654Z,965.9
2022-12-18T17:00:57.594Z,966.0
2022-12-18T17:03:57.598Z,966.02
2022-12-18T17:06:57.723Z,965.97
2022-12-18T17:09:57.991Z,966.01
2022-12-18T17:12:57.378Z,965.92
2022-12-18T17:15:58.059Z,965.98
2022-12-18T17:18:57.842Z,965.87
2022-12-18T17:21:57.664Z,965.85
2022-12-18T17:24:57.655Z,965.92
2022-12-18T17:27:57.698Z,965.77
2022-12-18T17:30:57.211Z,965.71
2022-12-18T17:33:57.793Z,965.55
2022-12-18T17:36:57.195Z,965.57
2022-12-18T17:39:57.407Z,965.55
2022-12-18T17:42:57.817Z,965.62
2022-12-18T17:45:58.313Z,965.63
2022-12-18T17:48:57.311Z,965.72
2022-12-18T17:51:58.196Z,965.75
2022-12-18T17:54:58.158Z,965.88
2022-12-18T17:57:57.269Z,965.79
2022-12-18T18:01:25.676Z,965.97
2022-12-18T18:03:57.270Z,965.97
2022-12-18T18:06:57.494Z,965.91
2022-12-18T18:09:57.722Z,965.94
2022-12-18T18:12:57.122Z,965.94
2022-12-18T18:15:57.468Z,965.97
2022-12-18T18:18:58.009Z,965.97
2022-12-18T18:21:57.750Z,966.03
2022-12-18T18:24:57.268Z,966.03
2022-12-18T18:27:57.112Z,966.07
2022-12-18T18:30:57.921Z,965.98
2022-12-18T18:33:56.798Z,965.89
2022-12-18T18:36:57.138Z,965.91
2022-12-18T18:39:58.106Z,965.94
2022-12-18T18:42:57.493Z,965.94
2022-12-18T18:45:57.941Z,965.81
2022-12-18T18:48:57.567Z,965.68
2022-12-18T18:51:57.336Z,965.67
2022-12-18T18:55:12.723Z,965.61
2022-12-18T18:57:58.127Z,965.64
2022-12-18T19:00:57.747Z,965.6
2022-12-18T19:03:57.658Z,965.45
2022-12-18T19:06:56.992Z,965.38
2022-12-18T19:09:57.510Z,965.32
2022-12-18T19:12:57.641Z,965.29
2022-12-18T19:15:57.169Z,965.13
2022-12-18T19:19:01.525Z,965.13
2022-12-18T19:21:57.035Z,965.02
2022-12-18T19:24:58.269Z,965.13
2022-12-18T19:27:57.449Z,965.13
2022-12-18T19:30:59.368Z,965.09
2022-12-18T19:33:57.957Z,965.1
2022-12-18T19:36:59.851Z,965.05
2022-12-18T19:39:57.385Z,965.12
2022-12-18T19:42:57.002Z,965.08
2022-12-18T19:45:57.955Z,965.17
2022-12-18T19:48:57.860Z,965.24
2022-12-18T19:51:57.476Z,965.31
2022-12-18T19:54:57.188Z,965.38
2022-12-18T19:57:57.307Z,965.38
2022-12-18T20:00:58.092Z,965.45
2022-12-18T20:03:58.178Z,965.44
2022-12-18T20:06:57.685Z,965.39
2022-12-18T20:10:02.705Z,965.26
2022-12-18T20:12:58.229Z,965.19
2022-12-18T20:15:57.235Z,965.16
2022-12-18T20:18:57.558Z,965.15
2022-12-18T20:21:57.759Z,965.29
2022-12-18T20:24:58.072Z,965.28
2022-12-18T20:27:57.220Z,965.21
2022-12-18T20:30:57.972Z,965.19
2022-12-18T20:34:00.246Z,965.24
2022-12-18T20:36:56.994Z,965.28
2022-12-18T20:39:58.207Z,965.18
2022-12-18T20:42:56.909Z,965.17
2022-12-18T20:45:57.362Z,965.18
2022-12-18T20:48:57.882Z,965.18
2022-12-18T20:51:56.878Z,965.12
2022-12-18T20:54:57.848Z,965.03
2022-12-18T20:57:57.468Z,965.02
2022-12-18T21:00:57.685Z,964.94
2022-12-18T21:03:57.851Z,964.89
2022-12-18T21:07:02.438Z,964.79
2022-12-18T21:09:57.545Z,964.76
2022-12-18T21:13:01.704Z,964.74
2022-12-18T21:15:57.941Z,964.61
2022-12-18T21:18:57.508Z,964.67
2022-12-18T21:21:57.819Z,964.66
2022-12-18T21:24:57.592Z,964.61
2022-12-18T21:27:57.473Z,964.69
2022-12-18T21:30:57.622Z,964.68
2022-12-18T21:33:59.798Z,964.62
2022-12-18T21:36:57.480Z,964.62
2022-12-18T21:39:57.246Z,964.59
2022-12-18T21:42:57.767Z,964.79
2022-12-18T21:45:57.322Z,964.86
2022-12-18T21:48:57.584Z,964.92
2022-12-18T21:51:57.303Z,964.68
2022-12-18T21:54:58.490Z,964.97
2022-12-18T21:57:57.590Z,964.79
2022-12-18T22:00:58.220Z,964.79
2022-12-18T22:03:57.927Z,964.88
2022-12-18T22:06:57.586Z,964.73
2022-12-18T22:10:02.437Z,964.58
2022-12-18T22:12:57.860Z,964.42
2022-12-18T22:15:57.215Z,964.47
2022-12-18T22:18:57.599Z,964.49
2022-12-18T22:21:57.636Z,964.53
2022-12-18T22:24:57.430Z,964.43
2022-12-18T22:27:56.908Z,964.47
2022-12-18T22:30:59.689Z,964.57
2022-12-18T22:33:57.384Z,964.95
2022-12-18T22:36:57.271Z,965.08
2022-12-18T22:39:57.531Z,965.17
2022-12-18T22:43:02.292Z,965.07
2022-12-18T22:45:58.158Z,965.02
2022-12-18T22:48:57.245Z,965.04
2022-12-18T22:51:57.118Z,965.12
2022-12-18T22:54:57.169Z,965.15
2022-12-18T22:57:57.761Z,965.17
2022-12-18T23:00:58.391Z,965.0
2022-12-18T23:03:57.038Z,964.85
2022-12-18T23:06:57.688Z,964.95
2022-12-18T23:09:58.435Z,964.9
2022-12-18T23:12:57.190Z,964.69
2022-12-18T23:15:58.101Z,964.6
2022-12-18T23:18:57.649Z,964.61
2022-12-18T23:21:57.766Z,964.53
2022-12-18T23:24:56.913Z,964.56
2022-12-18T23:27:56.826Z,964.5
2022-12-18T23:31:00.275Z,964.48
2022-12-18T23:33:57.608Z,964.45
2022-12-18T23:36:56.863Z,964.41
2022-12-18T23:39:57.310Z,964.42
2022-12-18T23:42:57.652Z,964.35
2022-12-18T23:45:57.139Z,964.38
2022-12-18T23:48:57.858Z,964.29
2022-12-18T23:51:57.125Z,964.42
2022-12-18T23:54:57.208Z,964.32
2022-12-18T23:57:57.527Z,964.29
